Time;durP1;ratioP1;P1;durP2;ratioP2;P2;SDS_P1;SDS_P2;PMS_P1;PMS_P2;Temp;Humidity;BMP_temperature;BMP_pressure;BME280_temperature;BME280_humidity;BME280_pressure;Samples;Min_cycle;Max_cycle;Signal;HPM_P1;HPM_P2
2022/07/02 00:01:43;;;;;;;8.43;6.07;;;;;;;25.61;47.76;94811.59;4134703;28;20061;-64
2022/07/02 00:03:51;;;;;;;8.00;6.20;;;;;;;25.61;47.45;94808.13;4141757;28;20050;-65
2022/07/02 00:05:58;;;;;;;8.65;6.10;;;;;;;25.58;48.18;94808.63;4133683;28;20109;-64
2022/07/02 00:08:01;;;;;;;13.93;6.18;;;;;;;25.49;48.28;94803.72;4142536;28;20046;-62
2022/07/02 00:10:03;;;;;;;8.48;6.53;;;;;;;25.46;48.75;94809.56;4142462;28;20173;-64
2022/07/02 00:12:06;;;;;;;9.07;6.50;;;;;;;25.35;48.92;94805.13;4133756;28;20441;-66
2022/07/02 00:14:08;;;;;;;10.63;7.40;;;;;;;25.27;49.32;94805.56;4139486;28;20057;-65
2022/07/02 00:16:10;;;;;;;12.05;7.15;;;;;;;25.20;49.75;94807.63;4128968;28;20053;-65
2022/07/02 00:18:15;;;;;;;9.27;6.50;;;;;;;25.19;49.64;94808.63;4127258;28;20054;-68
2022/07/02 00:20:17;;;;;;;7.97;6.78;;;;;;;25.17;49.63;94805.38;4144653;28;20069;-65
2022/07/02 00:22:20;;;;;;;9.63;6.97;;;;;;;25.16;49.91;94815.31;4144812;28;20046;-65
2022/07/02 00:24:22;;;;;;;9.23;7.25;;;;;;;25.12;49.90;94812.31;4145475;28;20058;-66
2022/07/02 00:26:35;;;;;;;8.13;6.68;;;;;;;25.02;50.28;94806.81;4135847;28;20129;-65
2022/07/02 00:28:41;;;;;;;9.48;7.00;;;;;;;25.02;50.02;94806.00;4131344;28;20085;-64
2022/07/02 00:30:45;;;;;;;11.75;6.90;;;;;;;25.01;50.28;94802.50;4140921;28;20054;-65
2022/07/02 00:32:47;;;;;;;12.30;6.90;;;;;;;25.02;50.55;94800.66;4132498;28;20600;-64
2022/07/02 00:34:49;;;;;;;10.65;7.20;;;;;;;25.04;50.56;94798.53;4144064;28;20050;-66
2022/07/02 00:36:52;;;;;;;7.80;6.82;;;;;;;25.05;50.21;94808.97;4130134;28;20676;-65
2022/07/02 00:38:53;;;;;;;9.88;6.70;;;;;;;25.07;50.25;94803.38;4127847;28;20050;-66
2022/07/02 00:40:55;;;;;;;8.43;7.20;;;;;;;25.12;50.09;94800.75;4129935;28;20064;-65
2022/07/02 00:42:58;;;;;;;7.90;7.10;;;;;;;25.17;49.98;94814.25;4132172;28;20045;-66
2022/07/02 00:45:01;;;;;;;9.00;7.13;;;;;;;25.17;49.98;94814.25;4144910;28;20057;-65
2022/07/02 00:47:05;;;;;;;8.27;6.47;;;;;;;25.16;50.51;94815.31;4143834;28;20053;-68
2022/07/02 00:49:08;;;;;;;10.77;6.68;;;;;;;25.05;50.32;94818.91;4142074;28;20348;-65
2022/07/02 00:51:10;;;;;;;8.57;6.95;;;;;;;24.92;50.33;94814.69;4129016;28;20397;-65
2022/07/02 00:53:12;;;;;;;9.60;6.50;;;;;;;24.73;50.67;94817.63;4128293;28;20082;-64
2022/07/02 00:55:14;;;;;;;10.00;6.80;;;;;;;24.58;50.89;94813.91;4137316;28;20053;-65
2022/07/02 00:57:17;;;;;;;10.38;6.63;;;;;;;24.38;51.34;94822.41;4142829;28;20142;-65
2022/07/02 00:59:24;;;;;;;9.70;7.20;;;;;;;24.26;51.14;94819.78;4124450;28;20463;-65
2022/07/02 01:01:25;;;;;;;12.30;7.07;;;;;;;23.93;52.39;94824.03;4137194;28;20287;-65
2022/07/02 01:03:29;;;;;;;9.95;6.55;;;;;;;23.66;53.00;94815.72;4142543;28;20436;-66
2022/07/02 01:05:31;;;;;;;;;;;;;;;23.70;53.39;94816.84;4142487;28;20449;-66
2022/07/02 01:07:33;;;;;;;10.98;7.28;;;;;;;23.79;53.22;94812.81;4137995;28;19921;-64
2022/07/02 01:12:01;;;;;;;8.52;6.80;;;;;;;24.09;52.67;94809.03;4134760;28;20054;-66
2022/07/02 01:14:04;;;;;;;11.55;6.68;;;;;;;24.24;52.47;94803.16;4143930;28;20084;-65
2022/07/02 01:16:06;;;;;;;7.93;6.85;;;;;;;24.36;52.07;94809.25;4135146;28;20113;-66
2022/07/02 01:18:09;;;;;;;8.75;7.10;;;;;;;24.43;52.01;94803.72;4137882;28;20050;-65
2022/07/02 01:20:11;;;;;;;9.45;6.45;;;;;;;24.47;52.09;94800.31;4143046;28;20053;-65
2022/07/02 01:22:18;;;;;;;8.02;7.07;;;;;;;24.51;51.98;94798.81;4131397;28;20486;-66
2022/07/02 01:24:25;;;;;;;8.88;6.55;;;;;;;24.52;51.51;94795.09;4128728;28;20058;-65
2022/07/02 01:26:27;;;;;;;10.50;6.45;;;;;;;24.59;51.74;94802.16;4134398;28;20323;-66
2022/07/02 01:28:29;;;;;;;9.13;7.35;;;;;;;24.61;51.99;94794.66;4144376;28;20046;-65
2022/07/02 01:30:31;;;;;;;7.15;6.45;;;;;;;24.65;51.77;94801.16;4139103;28;20074;-67
2022/07/02 01:32:33;;;;;;;12.95;7.13;;;;;;;24.63;51.51;94800.59;4124323;28;20426;-66
2022/07/02 01:34:42;;;;;;;9.68;7.00;;;;;;;24.62;51.00;94801.66;4130896;28;20124;-65
2022/07/02 01:36:44;;;;;;;8.38;6.10;;;;;;;24.63;50.85;94793.38;4141472;28;20046;-65
2022/07/02 01:38:46;;;;;;;13.23;6.78;;;;;;;24.62;50.72;94791.75;4128331;28;20053;-66
2022/07/02 01:40:48;;;;;;;9.25;6.55;;;;;;;24.63;50.75;94793.38;4142380;28;20495;-65
2022/07/02 01:42:50;;;;;;;9.73;7.18;;;;;;;24.65;50.51;94793.97;4130378;28;20413;-65
2022/07/02 01:44:52;;;;;;;13.88;7.10;;;;;;;24.64;50.32;94792.31;4139190;28;20051;-66
2022/07/02 01:46:54;;;;;;;15.70;7.45;;;;;;;24.59;50.77;94791.44;4137410;28;20409;-65
2022/07/02 01:48:56;;;;;;;14.00;7.80;;;;;;;24.07;52.80;94801.28;4133735;28;20077;-65
2022/07/02 01:50:57;;;;;;;8.52;6.78;;;;;;;23.66;54.11;94794.31;4131743;28;20061;-65
2022/07/02 01:52:59;;;;;;;15.00;8.45;;;;;;;23.53;54.67;94795.41;4143696;28;20056;-65
2022/07/02 01:55:02;;;;;;;11.02;8.05;;;;;;;23.46;54.86;94794.72;4137542;28;20145;-67
2022/07/02 01:57:04;;;;;;;10.80;8.07;;;;;;;23.05;56.06;94793.88;4144310;28;20133;-66
2022/07/02 01:59:06;;;;;;;12.65;8.02;;;;;;;22.89;56.69;94793.53;4141530;28;20719;-64
2022/07/02 02:01:08;;;;;;;10.93;9.05;;;;;;;22.65;57.26;94797.22;4144650;28;20472;-65
2022/07/02 02:03:10;;;;;;;11.32;8.63;;;;;;;22.64;57.69;94801.78;4129937;28;20061;-66
2022/07/02 02:05:12;;;;;;;10.73;9.20;;;;;;;22.55;58.11;94797.03;4135712;28;20046;-66
2022/07/02 02:07:14;;;;;;;11.57;8.88;;;;;;;22.27;59.11;94799.28;4137971;28;20058;-66
2022/07/02 02:09:16;;;;;;;11.35;9.05;;;;;;;22.00;59.86;94804.19;4137632;28;20421;-66
2022/07/02 02:11:18;;;;;;;13.63;9.48;;;;;;;21.94;59.97;94796.28;4146826;28;20501;-66
2022/07/02 02:13:20;;;;;;;11.25;9.45;;;;;;;21.95;60.58;94801.38;4134066;28;20502;-66
2022/07/02 02:15:21;;;;;;;12.32;9.43;;;;;;;21.97;60.33;94788.63;4130385;28;20054;-66
2022/07/02 02:17:23;;;;;;;12.95;10.02;;;;;;;21.86;60.95;94800.09;4133693;28;20058;-66
2022/07/02 02:19:25;;;;;;;10.43;9.20;;;;;;;21.81;61.11;94795.44;4139790;28;20133;-65
2022/07/02 02:21:28;;;;;;;13.27;10.57;;;;;;;21.93;61.07;94795.47;4130972;28;20066;-66
2022/07/02 02:23:30;;;;;;;15.90;10.95;;;;;;;22.10;60.67;94795.63;4141712;28;20054;-66
2022/07/02 02:25:32;;;;;;;16.15;11.00;;;;;;;22.29;60.14;94799.06;4132401;28;20124;-65
2022/07/02 02:27:34;;;;;;;14.50;10.63;;;;;;;22.47;59.62;94809.66;4141090;28;20042;-66
2022/07/02 02:29:36;;;;;;;16.58;10.45;;;;;;;22.58;59.23;94805.34;4137436;28;20049;-67
2022/07/02 02:31:38;;;;;;;14.55;9.38;;;;;;;22.74;59.09;94800.41;4141061;28;20460;-66
2022/07/02 02:33:41;;;;;;;16.05;10.27;;;;;;;22.89;58.40;94806.09;4145499;28;20058;-67
2022/07/02 02:35:43;;;;;;;13.30;10.00;;;;;;;23.03;57.98;94812.81;4145783;28;20096;-66
2022/07/02 02:37:44;;;;;;;14.82;11.07;;;;;;;23.14;57.98;94808.50;4139256;28;20109;-66
2022/07/02 02:39:46;;;;;;;12.88;10.00;;;;;;;23.23;57.32;94807.13;4130457;28;20058;-65
2022/07/02 02:41:48;;;;;;;13.27;10.23;;;;;;;23.27;57.65;94823.47;4130609;28;20171;-66
2022/07/02 02:43:50;;;;;;;12.60;9.52;;;;;;;23.17;57.49;94807.25;4128623;28;20062;-66
2022/07/02 02:45:52;;;;;;;12.90;10.48;;;;;;;23.08;58.15;94822.78;4132626;28;20050;-66
2022/07/02 02:47:53;;;;;;;16.20;9.95;;;;;;;23.01;58.61;94825.59;4142163;28;20390;-65
2022/07/02 02:49:55;;;;;;;13.20;9.30;;;;;;;23.04;58.65;94825.16;4143893;28;20057;-66
2022/07/02 02:51:57;;;;;;;14.05;9.43;;;;;;;23.12;58.08;94825.81;4137543;28;20051;-65
2022/07/02 02:53:59;;;;;;;17.75;9.85;;;;;;;23.20;58.25;94828.16;4130051;28;20062;-66
2022/07/02 02:56:02;;;;;;;11.75;9.25;;;;;;;23.26;57.86;94827.22;4132458;28;20111;-65
2022/07/02 02:58:04;;;;;;;12.35;9.48;;;;;;;23.30;57.27;94831.84;4143053;28;20077;-65
2022/07/02 03:00:07;;;;;;;13.55;9.07;;;;;;;23.34;57.49;94836.72;4145355;28;20227;-65
2022/07/02 03:02:09;;;;;;;16.25;10.43;;;;;;;23.44;57.12;94839.59;4137549;28;20046;-66
2022/07/02 03:04:10;;;;;;;15.30;9.13;;;;;;;23.51;56.97;94841.09;4128157;28;20502;-65
2022/07/02 03:06:12;;;;;;;14.48;9.00;;;;;;;23.61;56.53;94843.16;4140911;28;20164;-65
2022/07/02 03:08:14;;;;;;;12.55;9.32;;;;;;;23.60;56.32;94838.88;4146540;28;20057;-66
2022/07/02 03:10:16;;;;;;;14.57;9.90;;;;;;;23.63;56.58;94837.59;4143008;28;20624;-66
2022/07/02 03:12:19;;;;;;;16.60;9.52;;;;;;;23.67;56.63;94849.44;4129189;28;20125;-65
2022/07/02 03:14:21;;;;;;;9.98;8.55;;;;;;;23.66;56.15;94843.28;4137175;28;20390;-64
2022/07/02 03:16:23;;;;;;;13.23;9.45;;;;;;;23.68;56.15;94851.88;4145098;28;20327;-65
2022/07/02 03:18:24;;;;;;;14.23;9.63;;;;;;;23.70;56.07;94847.13;4144611;28;20050;-65
2022/07/02 03:20:28;;;;;;;14.98;10.15;;;;;;;23.70;56.15;94843.59;4145097;28;20050;-65
2022/07/02 03:22:30;;;;;;;11.27;9.50;;;;;;;23.69;56.11;94852.69;4141263;28;20050;-65
2022/07/02 03:24:32;;;;;;;14.98;9.65;;;;;;;23.74;56.58;94850.09;4129952;28;20054;-66
2022/07/02 03:26:34;;;;;;;18.50;9.82;;;;;;;23.75;56.62;94851.75;4129669;28;20050;-66
2022/07/02 03:28:36;;;;;;;14.00;10.10;;;;;;;23.70;56.26;94849.78;4129576;28;20057;-65
2022/07/02 03:30:38;;;;;;;15.00;11.05;;;;;;;23.59;56.52;94847.94;4135299;28;20056;-67
2022/07/02 03:32:39;;;;;;;13.45;11.15;;;;;;;23.55;56.41;94851.31;4144669;28;20056;-65
2022/07/02 03:34:41;;;;;;;15.05;11.25;;;;;;;23.44;56.59;94861.78;4145128;28;20058;-64
2022/07/02 03:36:43;;;;;;;15.40;9.70;;;;;;;23.40;56.97;94860.63;4136579;28;20054;-65
2022/07/02 03:38:45;;;;;;;14.93;10.23;;;;;;;23.42;57.13;94863.88;4129442;28;20137;-67
2022/07/02 03:40:47;;;;;;;14.13;10.65;;;;;;;23.50;56.91;94865.41;4129377;28;20070;-66
2022/07/02 03:42:49;;;;;;;13.40;9.70;;;;;;;23.58;56.83;94864.25;4135096;28;20054;-66
2022/07/02 03:44:51;;;;;;;14.77;10.15;;;;;;;23.69;56.46;94877.56;4136908;28;20060;-65
2022/07/02 03:46:53;;;;;;;12.45;9.18;;;;;;;23.81;56.30;94866.03;4129788;28;20553;-65
2022/07/02 03:48:55;;;;;;;10.60;9.45;;;;;;;23.89;56.19;94861.13;4141212;28;20398;-65
2022/07/02 03:50:57;;;;;;;10.93;9.77;;;;;;;23.98;56.10;94866.09;4131951;28;20046;-68
2022/07/02 03:52:59;;;;;;;10.82;8.82;;;;;;;24.02;55.38;94867.25;4139813;28;20054;-66
2022/07/02 03:55:01;;;;;;;11.98;9.10;;;;;;;24.06;55.64;94868.41;4129173;28;20093;-64
2022/07/02 03:57:04;;;;;;;16.08;9.68;;;;;;;24.10;55.47;94869.56;4136994;28;20089;-65
2022/07/02 03:59:05;;;;;;;14.82;10.00;;;;;;;24.11;55.32;94871.16;4128661;28;20054;-65
2022/07/02 04:01:07;;;;;;;13.10;9.98;;;;;;;24.13;55.40;94869.06;4128916;28;20060;-65
2022/07/02 04:03:09;;;;;;;9.80;8.80;;;;;;;24.18;55.46;94871.03;4128092;28;20046;-66
2022/07/02 04:05:11;;;;;;;12.38;9.32;;;;;;;24.23;55.29;94879.16;4136826;28;20636;-67
2022/07/02 04:07:13;;;;;;;10.95;9.63;;;;;;;24.24;54.92;94878.09;4141549;28;20043;-66
2022/07/02 04:09:15;;;;;;;14.05;10.23;;;;;;;24.25;54.92;94874.38;4136544;28;20042;-66
2022/07/02 04:11:17;;;;;;;11.63;8.85;;;;;;;24.30;54.82;94875.25;4134470;28;20121;-64
2022/07/02 04:13:19;;;;;;;10.38;9.25;;;;;;;24.44;54.75;94875.78;4128909;28;20072;-66
2022/07/02 04:15:21;;;;;;;12.25;9.00;;;;;;;24.55;54.63;94882.16;4129378;28;20128;-65
2022/07/02 04:17:23;;;;;;;15.23;9.85;;;;;;;24.61;54.32;94875.00;4140076;28;20054;-66
2022/07/02 04:19:25;;;;;;;15.23;10.02;;;;;;;24.68;53.93;94875.69;4128529;28;20385;-65
2022/07/02 04:21:27;;;;;;;11.95;9.80;;;;;;;24.69;53.89;94888.00;4129190;28;20461;-64
2022/07/02 04:23:29;;;;;;;13.20;10.05;;;;;;;24.72;53.78;94882.19;4127691;28;20064;-66
2022/07/02 04:25:31;;;;;;;12.25;9.57;;;;;;;24.71;53.78;94889.38;4156659;28;20067;-64
2022/07/02 04:27:33;;;;;;;20.40;11.23;;;;;;;24.77;53.76;94889.50;4144053;28;20056;-65
2022/07/02 04:29:35;;;;;;;13.35;9.90;;;;;;;24.80;53.44;94879.09;4136113;28;20061;-66
2022/07/02 04:31:37;;;;;;;14.40;11.02;;;;;;;24.79;53.48;94885.50;4128335;28;20113;-66
2022/07/02 04:33:39;;;;;;;17.83;10.82;;;;;;;24.66;53.61;94886.63;4126161;28;20054;-67
2022/07/02 04:35:44;;;;;;;16.23;10.77;;;;;;;24.65;53.77;94886.88;4141695;28;20115;-66
2022/07/02 04:37:46;;;;;;;15.18;10.85;;;;;;;24.51;54.03;94884.50;4132519;28;20046;-65
2022/07/02 04:39:48;;;;;;;16.52;10.95;;;;;;;24.51;53.87;94892.53;4138122;28;20062;-64
2022/07/02 04:41:50;;;;;;;17.40;11.55;;;;;;;24.23;54.69;94884.50;4129149;28;20244;-66
2022/07/02 04:43:52;;;;;;;15.18;11.50;;;;;;;23.99;55.18;94884.59;4128052;28;20641;-66
2022/07/02 04:45:54;;;;;;;19.30;11.70;;;;;;;24.04;55.47;94892.72;4145220;28;20448;-65
2022/07/02 04:47:56;;;;;;;12.43;10.57;;;;;;;24.14;55.34;94881.41;4143138;28;20126;-66
2022/07/02 04:49:58;;;;;;;18.33;11.32;;;;;;;24.21;55.18;94886.63;4136129;28;20051;-66
2022/07/02 04:52:00;;;;;;;14.35;11.48;;;;;;;24.37;54.81;94887.69;4128637;28;20121;-65
2022/07/02 04:54:02;;;;;;;16.50;11.30;;;;;;;24.52;54.60;94888.81;4127173;28;20050;-65
2022/07/02 04:56:04;;;;;;;19.30;11.43;;;;;;;24.71;54.15;94891.25;4144984;28;20453;-65
2022/07/02 04:58:05;;;;;;;18.35;11.65;;;;;;;24.77;53.90;94898.34;4143908;28;20042;-66
2022/07/02 05:00:08;;;;;;;15.20;10.38;;;;;;;24.86;53.72;94896.06;4136640;28;20047;-66
2022/07/02 05:02:13;;;;;;;16.60;11.53;;;;;;;24.99;53.84;94892.25;4127019;28;20056;-65
2022/07/02 05:04:15;;;;;;;14.80;10.73;;;;;;;25.11;53.31;94893.78;4127107;28;20050;-67
2022/07/02 05:06:18;;;;;;;13.35;11.65;;;;;;;25.22;52.75;94892.09;4139910;28;20078;-66
2022/07/02 05:08:24;;;;;;;;;;;;;;;25.23;52.92;94895.56;4142033;28;20061;-64
2022/07/02 05:10:26;;;;;;;17.33;10.80;;;;;;;25.29;53.10;94889.22;4143835;28;19925;-66
2022/07/02 05:12:27;;;;;;;12.10;10.80;;;;;;;25.35;52.99;94888.25;4138944;28;20422;-66
2022/07/02 05:14:29;;;;;;;16.65;11.23;;;;;;;25.33;52.58;94895.72;4128647;28;20066;-65
2022/07/02 05:16:31;;;;;;;18.17;11.05;;;;;;;25.36;53.01;94889.91;4137651;28;20049;-65
2022/07/02 05:18:33;;;;;;;12.43;9.70;;;;;;;25.45;52.54;94898.31;4130043;28;20047;-68
2022/07/02 05:20:35;;;;;;;13.32;11.43;;;;;;;25.32;52.14;94892.25;4127793;28;20057;-64
2022/07/02 05:22:37;;;;;;;12.23;10.18;;;;;;;25.00;52.49;94892.00;4129366;28;20054;-64
2022/07/02 05:24:39;;;;;;;13.38;10.57;;;;;;;24.89;52.85;94896.41;4138599;28;20065;-65
2022/07/02 05:26:41;;;;;;;13.23;10.50;;;;;;;24.89;53.09;94899.06;4137138;28;20050;-66
2022/07/02 05:28:43;;;;;;;11.68;10.10;;;;;;;24.88;52.92;94902.00;4129970;28;20060;-66
2022/07/02 05:30:45;;;;;;;11.27;10.07;;;;;;;24.78;52.92;94902.66;4141943;28;20054;-66
2022/07/02 05:32:47;;;;;;;13.95;9.43;;;;;;;24.66;53.28;94904.59;4141365;28;20085;-66
2022/07/02 05:34:49;;;;;;;14.00;10.30;;;;;;;24.66;53.63;94915.28;4130845;28;20062;-65
2022/07/02 05:36:56;;;;;;;15.40;10.85;;;;;;;24.79;53.23;94904.25;4142596;28;20054;-66
2022/07/02 05:38:58;;;;;;;15.20;9.88;;;;;;;24.93;53.47;94905.56;4147151;28;20058;-67
2022/07/02 05:41:00;;;;;;;12.93;9.70;;;;;;;25.05;52.58;94912.72;4131590;28;20471;-65
2022/07/02 05:43:02;;;;;;;15.07;9.85;;;;;;;25.05;52.53;94908.16;4138642;28;20046;-65
2022/07/02 05:45:05;;;;;;;14.50;10.20;;;;;;;25.02;52.85;94907.84;4146601;28;20120;-65
2022/07/02 05:47:07;;;;;;;13.93;9.87;;;;;;;25.19;52.77;94916.69;4147433;28;20493;-66
2022/07/02 05:49:09;;;;;;;15.63;10.02;;;;;;;25.38;52.60;94917.25;4142727;28;20601;-65
2022/07/02 05:51:10;;;;;;;13.52;9.73;;;;;;;25.45;51.52;94912.53;4135773;28;20045;-65
2022/07/02 05:53:13;;;;;;;19.17;9.77;;;;;;;25.41;52.16;94918.66;4139645;28;20490;-65
2022/07/02 05:55:15;;;;;;;12.23;9.53;;;;;;;25.35;51.80;94915.06;4140518;28;20050;-66
2022/07/02 05:57:17;;;;;;;12.93;9.60;;;;;;;25.24;51.64;94911.44;4133534;28;20453;-65
2022/07/02 05:59:19;;;;;;;11.85;8.90;;;;;;;25.27;51.84;94902.88;4143977;28;20583;-66
2022/07/02 06:01:20;;;;;;;11.60;8.55;;;;;;;25.33;51.61;94914.50;4134353;28;20140;-65
2022/07/02 06:03:22;;;;;;;12.93;8.75;;;;;;;25.42;51.54;94910.34;4136820;28;20084;-66
2022/07/02 06:07:46;;;;;;;11.98;8.63;;;;;;;25.84;51.22;94907.16;4145679;28;20053;-65
2022/07/02 06:09:48;;;;;;;10.30;8.88;;;;;;;26.03;50.93;94906.84;4142695;28;20108;-65
2022/07/02 06:11:50;;;;;;;11.07;8.88;;;;;;;26.20;50.49;94912.13;4138548;28;20480;-64
2022/07/02 06:13:52;;;;;;;10.50;8.82;;;;;;;26.28;50.44;94917.06;4136407;28;20046;-65
2022/07/02 06:15:53;;;;;;;10.75;8.57;;;;;;;26.23;49.63;94906.28;4141463;28;20141;-64
2022/07/02 06:17:59;;;;;;;9.20;8.30;;;;;;;26.24;49.78;94914.09;4128918;28;20544;-66
2022/07/02 06:20:02;;;;;;;9.93;8.60;;;;;;;26.32;49.97;94912.81;4142338;28;20469;-67
2022/07/02 06:22:04;;;;;;;12.20;8.82;;;;;;;26.28;49.88;94915.19;4130467;28;20074;-64
2022/07/02 06:24:09;;;;;;;12.07;7.85;;;;;;;26.20;49.78;94912.13;4143320;28;20393;-64
2022/07/02 06:26:11;;;;;;;11.25;9.05;;;;;;;26.02;50.28;94915.97;4134063;28;20172;-66
2022/07/02 06:28:13;;;;;;;14.77;9.15;;;;;;;26.17;50.39;94918.84;4144950;28;20051;-66
2022/07/02 06:30:16;;;;;;;9.90;8.57;;;;;;;26.32;50.01;94916.31;4143827;28;20054;-67
2022/07/02 06:32:18;;;;;;;10.18;8.10;;;;;;;26.51;49.38;94913.28;4143352;28;20045;-64
2022/07/02 06:34:20;;;;;;;12.07;8.15;;;;;;;26.66;48.33;94920.72;4145442;28;20723;-68
2022/07/02 06:36:24;;;;;;;11.15;8.85;;;;;;;26.78;48.04;94918.69;4139053;28;20070;-65
2022/07/02 06:38:26;;;;;;;11.57;8.45;;;;;;;26.94;47.71;94920.41;4129959;28;20058;-65
2022/07/02 06:40:28;;;;;;;9.63;8.65;;;;;;;27.10;47.31;94925.91;4130332;28;20058;-66
2022/07/02 06:42:30;;;;;;;10.57;8.52;;;;;;;27.11;47.58;94930.25;4131906;28;20064;-65
2022/07/02 06:44:32;;;;;;;12.32;8.70;;;;;;;26.87;47.53;94927.09;4140677;28;20465;-65
2022/07/02 06:46:34;;;;;;;11.77;8.88;;;;;;;26.82;48.10;94927.03;4130487;28;20406;-65
2022/07/02 06:48:36;;;;;;;11.68;8.98;;;;;;;26.71;48.07;94923.44;4139976;28;20084;-65
2022/07/02 06:50:38;;;;;;;12.45;9.07;;;;;;;26.62;48.68;94924.97;4131287;28;20482;-66
2022/07/02 06:52:44;;;;;;;13.50;9.32;;;;;;;26.55;48.98;94925.94;4143342;28;20126;-67
2022/07/02 06:54:46;;;;;;;11.57;9.15;;;;;;;26.59;48.96;94928.16;4136151;28;20058;-66
2022/07/02 06:56:48;;;;;;;12.00;9.48;;;;;;;26.60;49.26;94921.72;4146362;28;20050;-67
2022/07/02 06:58:49;;;;;;;11.15;9.38;;;;;;;26.73;48.85;94922.13;4146152;28;20041;-66
2022/07/02 07:00:51;;;;;;;10.48;9.38;;;;;;;26.90;47.95;94930.06;4130997;28;20056;-66
2022/07/02 07:02:53;;;;;;;17.35;9.80;;;;;;;26.98;47.83;94923.41;4128300;28;20052;-67
2022/07/02 07:04:57;;;;;;;10.52;9.27;;;;;;;27.14;47.74;94924.34;4136153;28;20127;-66
2022/07/02 07:07:02;;;;;;;15.98;10.38;;;;;;;27.23;47.19;94917.44;4138581;28;20129;-64
2022/07/02 07:09:05;;;;;;;14.80;10.13;;;;;;;27.18;47.60;94922.75;4145298;28;20081;-65
2022/07/02 07:11:06;;;;;;;12.40;9.80;;;;;;;27.23;47.47;94927.38;4145973;28;20041;-66
2022/07/02 07:13:08;;;;;;;15.77;10.55;;;;;;;27.10;47.91;94928.59;4135160;28;20112;-67
2022/07/02 07:15:10;;;;;;;13.80;10.20;;;;;;;27.01;47.94;94939.03;4143133;28;20060;-67
2022/07/02 07:17:12;;;;;;;14.90;10.00;;;;;;;27.07;47.93;94937.19;4132128;28;20498;-67
2022/07/02 07:19:14;;;;;;;13.88;10.20;;;;;;;27.07;47.83;94937.19;4139032;28;20038;-64
2022/07/02 07:21:16;;;;;;;11.90;9.93;;;;;;;27.10;47.59;94933.97;4129844;28;20382;-65
2022/07/02 07:23:18;;;;;;;13.52;10.48;;;;;;;26.96;48.42;94936.31;4129068;28;20054;-65
2022/07/02 07:25:20;;;;;;;14.23;10.35;;;;;;;27.11;49.09;94931.03;4143010;28;20508;-66
2022/07/02 07:27:23;;;;;;;12.07;9.95;;;;;;;27.30;48.55;94925.31;4131421;28;20585;-66
2022/07/02 07:29:24;;;;;;;13.38;9.85;;;;;;;27.48;48.39;94934.84;4140798;28;20054;-66
2022/07/02 07:31:27;;;;;;;13.85;9.52;;;;;;;27.68;48.08;94934.13;4137364;28;20053;-66
2022/07/02 07:33:29;;;;;;;14.60;10.10;;;;;;;27.87;47.28;94938.03;4143550;28;20085;-66
2022/07/02 07:35:31;;;;;;;15.07;9.93;;;;;;;27.65;47.13;94940.84;4146018;28;20128;-67
2022/07/02 07:37:35;;;;;;;15.73;9.73;;;;;;;27.62;47.21;94941.38;4130790;28;20060;-65
2022/07/02 07:39:37;;;;;;;16.13;9.60;;;;;;;27.60;47.40;94942.69;4140929;28;20050;-68
2022/07/02 07:41:39;;;;;;;15.20;10.63;;;;;;;27.51;47.03;94937.00;4137299;28;20379;-66
2022/07/02 07:43:41;;;;;;;14.77;9.60;;;;;;;27.53;47.55;94943.75;4142554;28;20104;-68
2022/07/02 07:45:43;;;;;;;16.20;9.50;;;;;;;27.74;46.94;94936.59;4129835;28;20462;-66
2022/07/02 07:47:45;;;;;;;16.17;9.70;;;;;;;27.66;46.17;94930.88;4143309;28;20049;-66
2022/07/02 07:49:46;;;;;;;14.07;9.35;;;;;;;27.89;45.98;94935.88;4140457;28;20173;-65
2022/07/02 07:51:48;;;;;;;13.32;10.02;;;;;;;28.00;45.83;94933.25;4131713;28;20465;-66
2022/07/02 07:53:50;;;;;;;16.08;9.52;;;;;;;28.19;45.87;94940.59;4129100;28;20457;-66
2022/07/02 07:55:52;;;;;;;11.95;9.65;;;;;;;28.39;45.03;94939.88;4142480;28;20056;-66
2022/07/02 07:57:54;;;;;;;17.63;10.17;;;;;;;28.63;44.69;94934.03;4139491;28;20466;-65
2022/07/02 07:59:56;;;;;;;15.93;9.77;;;;;;;28.78;44.35;94936.75;4136429;28;20046;-67
2022/07/02 08:01:58;;;;;;;14.80;9.85;;;;;;;28.91;44.34;94938.09;4135181;28;20054;-64
2022/07/02 08:04:00;;;;;;;14.48;10.13;;;;;;;29.01;44.19;94942.69;4127126;28;20483;-65
2022/07/02 08:06:02;;;;;;;16.25;9.68;;;;;;;28.82;43.78;94939.69;4140292;28;20073;-63
2022/07/02 08:08:04;;;;;;;10.30;9.27;;;;;;;28.89;44.04;94942.97;4138028;28;20227;-69
2022/07/02 08:10:08;;;;;;;14.20;10.17;;;;;;;29.07;43.96;94943.50;4144913;28;20089;-64
2022/07/02 08:12:10;;;;;;;13.25;9.55;;;;;;;29.22;43.22;94937.34;4143538;28;20057;-67
2022/07/02 08:14:11;;;;;;;18.15;9.38;;;;;;;29.42;43.06;94944.59;4145072;28;20145;-66
2022/07/02 08:16:13;;;;;;;19.95;9.55;;;;;;;29.55;43.39;94941.34;4145319;28;20046;-65
2022/07/02 08:18:15;;;;;;;14.52;10.07;;;;;;;29.68;42.86;94943.47;4143575;28;20046;-68
2022/07/02 08:20:17;;;;;;;13.50;9.70;;;;;;;29.78;42.31;94940.78;4144585;28;20481;-66
2022/07/02 08:22:19;;;;;;;15.07;10.23;;;;;;;29.89;41.56;94936.16;4133621;28;20473;-64
2022/07/02 08:24:21;;;;;;;11.52;9.40;;;;;;;29.88;41.57;94945.34;4144517;28;20070;-65
2022/07/02 08:26:22;;;;;;;13.05;9.98;;;;;;;29.89;41.92;94941.56;4145368;28;20054;-67
2022/07/02 08:28:25;;;;;;;13.48;10.00;;;;;;;30.01;42.01;94942.06;4143940;28;20052;-66
2022/07/02 08:30:26;;;;;;;13.23;9.75;;;;;;;30.11;41.96;94949.31;4143838;28;20465;-67
2022/07/02 08:32:28;;;;;;;16.38;10.25;;;;;;;30.08;41.71;94939.06;4126465;28;20061;-66
2022/07/02 08:34:31;;;;;;;15.25;9.85;;;;;;;30.07;41.89;94942.03;4128669;28;20054;-66
2022/07/02 08:36:32;;;;;;;16.60;9.85;;;;;;;29.86;42.20;94947.50;4136818;28;20061;-65
2022/07/02 08:38:34;;;;;;;10.38;9.25;;;;;;;29.80;41.83;94946.72;4143920;28;20092;-67
2022/07/02 08:40:36;;;;;;;15.75;9.20;;;;;;;29.85;41.86;94947.78;4143031;28;20049;-65
2022/07/02 08:42:41;;;;;;;13.80;9.20;;;;;;;29.88;41.40;94950.75;4130077;28;20127;-66
2022/07/02 08:44:45;;;;;;;17.42;9.57;;;;;;;29.94;40.97;94949.66;4136911;28;20494;-66
2022/07/02 08:46:47;;;;;;;19.13;9.30;;;;;;;30.14;41.20;94953.38;4129488;28;20062;-66
2022/07/02 08:48:50;;;;;;;13.10;9.15;;;;;;;30.34;40.79;94952.50;4129453;28;20866;-66
2022/07/02 08:50:52;;;;;;;12.80;8.98;;;;;;;30.53;39.95;94950.78;4139753;28;20631;-66
2022/07/02 08:52:55;;;;;;;13.77;9.17;;;;;;;30.71;39.64;94948.50;4133680;28;20156;-64
2022/07/02 08:54:56;;;;;;;11.27;9.05;;;;;;;30.69;39.50;94950.69;4139333;28;20053;-65
2022/07/02 08:57:01;;;;;;;10.95;8.38;;;;;;;30.74;38.79;94951.47;4136333;28;20084;-65
2022/07/02 08:59:03;;;;;;;9.27;7.75;;;;;;;30.88;39.03;94946.25;4137407;28;20042;-65
2022/07/02 09:01:07;;;;;;;16.98;9.13;;;;;;;30.82;38.77;94950.88;4133818;28;20054;-63
2022/07/02 09:03:11;;;;;;;9.95;8.95;;;;;;;30.68;38.93;94958.00;4133943;28;20054;-66
2022/07/02 09:05:13;;;;;;;12.02;8.77;;;;;;;30.70;39.09;94944.19;4145579;28;20500;-68
2022/07/02 09:07:17;;;;;;;12.30;8.27;;;;;;;30.84;39.05;94956.00;4142805;28;20461;-67
2022/07/02 09:09:20;;;;;;;12.02;8.20;;;;;;;30.99;38.60;94947.78;4147103;28;20124;-67
2022/07/02 09:11:23;;;;;;;13.68;8.85;;;;;;;31.12;39.13;94949.06;4158289;28;20124;-65
2022/07/02 09:13:25;;;;;;;14.25;8.23;;;;;;;31.14;38.61;94948.78;4150978;28;20056;-66
2022/07/02 09:15:27;;;;;;;12.65;8.48;;;;;;;31.17;38.15;94950.91;4158914;28;20049;-66
2022/07/02 09:17:30;;;;;;;8.20;7.28;;;;;;;31.27;37.73;94941.91;4130366;28;20075;-65
2022/07/02 09:19:32;;;;;;;10.27;7.50;;;;;;;31.38;37.88;94944.22;4130957;28;20046;-65
2022/07/02 09:22:00;;;;;;;11.13;6.78;;;;;;;31.51;38.24;94934.66;4132346;28;20042;-65
2022/07/02 09:24:02;;;;;;;9.32;6.75;;;;;;;31.59;37.58;94944.09;4134914;28;20108;-65
2022/07/02 09:26:16;;;;;;;10.30;6.70;;;;;;;31.68;37.51;94938.84;4141842;28;20046;-67
2022/07/02 09:28:18;;;;;;;9.10;6.60;;;;;;;31.78;37.31;94941.47;4131706;28;20279;-66
2022/07/02 09:30:20;;;;;;;11.45;6.30;;;;;;;31.80;36.72;94934.66;4139998;28;20058;-65
2022/07/02 09:32:38;;;;;;;10.00;6.20;;;;;;;31.32;36.98;94937.28;4144798;28;20050;-65
2022/07/02 09:34:45;;;;;;;10.38;6.60;;;;;;;30.92;37.15;94927.59;4147060;28;20050;-64